Leland, Illinois
Current Conditions -  °F | °C
As of 1:52 PM on Sunday 23 Nov 2014 (Local Time) from KARR Reporting Station
Haze Haze  
Wind Chill: 51°   Ceiling: 1000
Heat Index: 51°   Visibility: 4mi
Dew Point: 47°   Wind: 10mph
Humidity: 86%   Direction: 140°SE
Pressure: 29.51"   Gusts: NA
Location:  41.61°N, 88.8°W
Report Text: KARR 231952Z 14009KT 4SM BR OVC010 11/08 A2951 RMK AO2 RAE14 SLP993 P0000 T01060083 $
Loading
Personal Weather Stations






























Interactive Weather Map New forecast layout! Learn more

10-Day Weather Forecast

Advertisements
Track Severe Weather on mobile